Time;durP1;ratioP1;P1;durP2;ratioP2;P2;SDS_P1;SDS_P2;PMS_P1;PMS_P2;Temp;Humidity;BMP_temperature;BMP_pressure;BME280_temperature;BME280_humidity;BME280_pressure;Samples;Min_cycle;Max_cycle;Signal;HPM_P1;HPM_P2
2022/03/23 00:02:25;;;;;;;48.95;17.15;;;;;;;2.67;46.88;102894.02;1748894;81;27467;-58
2022/03/23 00:04:55;;;;;;;40.83;17.07;;;;;;;2.63;46.50;102895.02;1749008;82;25826;-56
2022/03/23 00:07:22;;;;;;;37.50;15.83;;;;;;;2.58;46.70;102891.13;1749052;82;25747;-57
2022/03/23 00:09:50;;;;;;;43.87;16.25;;;;;;;2.52;46.57;102893.89;1749014;81;25905;-57
2022/03/23 00:12:17;;;;;;;39.53;16.15;;;;;;;2.52;46.89;102894.36;1749244;81;25798;-57
2022/03/23 00:14:43;;;;;;;42.90;16.25;;;;;;;2.44;46.83;102894.50;1748995;82;28524;-56
2022/03/23 00:17:10;;;;;;;41.20;16.02;;;;;;;2.37;46.72;102893.77;1748472;82;25667;-58
2022/03/23 00:19:37;;;;;;;40.70;16.25;;;;;;;2.36;47.14;102889.36;1748869;82;26570;-58
2022/03/23 00:22:04;;;;;;;35.33;15.05;;;;;;;2.39;47.02;102889.75;1748779;81;27853;-58
2022/03/23 00:24:32;;;;;;;34.70;14.18;;;;;;;2.38;46.95;102887.99;1748650;82;25798;-58
2022/03/23 00:26:59;;;;;;;35.40;13.78;;;;;;;2.34;46.76;102888.05;1751438;80;28202;-58
2022/03/23 00:29:26;;;;;;;36.03;14.83;;;;;;;2.27;47.15;102884.23;1717028;83;25829;-58
2022/03/23 00:31:53;;;;;;;42.60;15.85;;;;;;;2.18;47.44;102879.95;1753757;81;25698;-58
2022/03/23 00:34:21;;;;;;;43.20;14.35;;;;;;;2.15;47.93;102880.90;1717407;83;25845;-58
2022/03/23 00:36:50;;;;;;;27.32;13.00;;;;;;;2.10;47.64;102881.45;1753551;81;25678;-58
2022/03/23 00:39:20;;;;;;;32.95;14.65;;;;;;;2.03;47.61;102878.03;1717187;83;27486;-58
2022/03/23 00:41:49;;;;;;;41.65;14.35;;;;;;;2.00;47.79;102879.41;1753773;80;25885;-58
2022/03/23 00:44:15;;;;;;;41.00;13.90;;;;;;;1.97;47.54;102875.47;1717225;83;25811;-58
2022/03/23 00:46:44;;;;;;;28.85;13.65;;;;;;;1.97;47.51;102878.59;1753954;81;25797;-58
2022/03/23 00:49:10;;;;;;;32.53;15.13;;;;;;;1.97;47.75;102870.63;1717267;83;25797;-58
2022/03/23 00:51:37;;;;;;;33.02;13.58;;;;;;;1.98;47.88;102869.73;1753704;81;27483;-59
2022/03/23 00:54:04;;;;;;;37.95;14.50;;;;;;;1.96;47.84;102867.55;1753735;81;25639;-58
2022/03/23 00:56:33;;;;;;;29.35;12.70;;;;;;;1.93;47.76;102868.95;1717715;83;25830;-58
2022/03/23 00:59:00;;;;;;;43.50;14.85;;;;;;;1.90;47.83;102864.55;1747217;81;25818;-58
2022/03/23 01:01:29;;;;;;;38.53;15.20;;;;;;;1.90;48.17;102866.34;1708904;82;25857;-58
2022/03/23 01:03:56;;;;;;;33.98;14.63;;;;;;;1.87;48.36;102868.14;1692962;83;27492;-58
2022/03/23 01:06:23;;;;;;;35.28;13.78;;;;;;;1.84;48.00;102861.55;1697944;83;25906;-58
2022/03/23 01:08:50;;;;;;;33.42;13.13;;;;;;;1.84;48.54;102858.89;1697755;84;26474;-58
2022/03/23 01:11:18;;;;;;;34.78;14.95;;;;;;;1.82;48.98;102857.18;1698199;84;26678;-57
2022/03/23 01:13:45;;;;;;;37.17;13.60;;;;;;;1.73;48.64;102851.61;1698215;83;25669;-57
2022/03/23 01:16:12;;;;;;;37.70;13.78;;;;;;;1.72;49.05;102852.50;1698092;84;27545;-56
2022/03/23 01:18:39;;;;;;;30.52;13.72;;;;;;;1.67;48.73;102849.94;1697868;83;25762;-57
2022/03/23 01:21:07;;;;;;;30.15;12.90;;;;;;;1.67;49.08;102851.69;1697870;83;25801;-57
2022/03/23 01:23:34;;;;;;;39.30;13.60;;;;;;;1.68;48.93;102846.81;1698124;83;25803;-57
2022/03/23 01:26:01;;;;;;;33.48;13.83;;;;;;;1.67;48.94;102846.38;1711860;81;26124;-58
2022/03/23 01:28:28;;;;;;;36.05;13.68;;;;;;;1.66;49.18;102848.18;1714592;82;29606;-57
2022/03/23 01:30:55;;;;;;;36.35;13.15;;;;;;;1.65;49.29;102849.08;1714587;83;25859;-57
2022/03/23 01:33:22;;;;;;;34.73;13.40;;;;;;;1.62;48.96;102848.26;1720181;83;25778;-57
2022/03/23 01:35:49;;;;;;;38.05;13.53;;;;;;;1.59;49.47;102841.67;1719942;83;25792;-58
2022/03/23 01:38:18;;;;;;;35.95;15.30;;;;;;;1.55;49.50;102841.75;1751940;81;25885;-57
2022/03/23 01:40:46;;;;;;;40.50;15.05;;;;;;;1.55;50.16;102842.17;1717329;83;27634;-57
2022/03/23 01:43:15;;;;;;;33.83;13.68;;;;;;;1.47;49.98;102838.78;1753573;81;25725;-58
2022/03/23 01:45:42;;;;;;;40.75;13.40;;;;;;;1.42;50.10;102848.61;1717281;83;25667;-57
2022/03/23 01:48:09;;;;;;;50.65;14.75;;;;;;;1.39;50.09;102842.91;1753750;81;25893;-57
2022/03/23 01:50:36;;;;;;;40.73;15.30;;;;;;;1.39;50.38;102839.80;1717192;83;25708;-57
2022/03/23 01:53:03;;;;;;;36.83;13.65;;;;;;;1.36;50.55;102841.62;1753934;81;27569;-58
2022/03/23 01:55:31;;;;;;;36.85;14.25;;;;;;;1.33;50.74;102840.34;1717151;83;25509;-57
2022/03/23 01:57:58;;;;;;;33.25;14.33;;;;;;;1.27;51.20;102841.77;1754990;80;25714;-59
2022/03/23 02:00:28;;;;;;;36.45;15.08;;;;;;;1.23;50.70;102845.79;1759137;81;25842;-57
2022/03/23 02:02:55;;;;;;;40.35;15.45;;;;;;;1.21;51.28;102848.91;1759150;81;25441;-57
2022/03/23 02:05:21;;;;;;;34.23;13.72;;;;;;;1.17;51.67;102856.50;1758924;81;26862;-57
2022/03/23 02:07:51;;;;;;;35.43;14.15;;;;;;;1.15;51.14;102857.43;1758953;80;25719;-59
2022/03/23 02:10:18;;;;;;;31.85;14.50;;;;;;;1.12;52.14;102849.05;1758682;80;25712;-57
2022/03/23 02:12:47;;;;;;;41.23;14.43;;;;;;;1.05;51.43;102854.02;1758791;80;28074;-58
2022/03/23 02:15:17;;;;;;;37.08;13.83;;;;;;;1.02;51.87;102852.77;1758911;81;25766;-57
2022/03/23 02:17:47;;;;;;;41.58;14.18;;;;;;;0.97;52.41;102847.53;1758963;80;27494;-58
2022/03/23 02:20:14;;;;;;;29.82;13.80;;;;;;;0.97;51.90;102850.19;1758924;81;25686;-58
2022/03/23 02:22:43;;;;;;;34.63;14.83;;;;;;;0.97;51.85;102846.64;1759230;81;25651;-57
2022/03/23 02:25:10;;;;;;;42.15;14.83;;;;;;;1.00;51.63;102846.14;1756452;81;25769;-57
2022/03/23 02:27:40;;;;;;;28.05;13.43;;;;;;;0.99;51.75;102848.36;1712397;82;25673;-57
2022/03/23 02:30:10;;;;;;;35.08;13.85;;;;;;;0.97;51.35;102846.21;1748511;82;28153;-57
2022/03/23 02:32:37;;;;;;;33.85;15.38;;;;;;;0.94;51.20;102848.89;1748363;81;25761;-57
2022/03/23 02:35:08;;;;;;;39.45;13.83;;;;;;;0.93;51.21;102849.36;1748675;82;25746;-57
2022/03/23 02:37:39;;;;;;;47.98;13.32;;;;;;;0.91;51.18;102855.55;1748742;81;25688;-58
2022/03/23 02:40:08;;;;;;;33.02;13.20;;;;;;;0.87;51.38;102846.78;1748832;80;27365;-57
2022/03/23 02:42:37;;;;;;;36.40;14.18;;;;;;;0.85;51.36;102857.84;1748199;81;27526;-56
2022/03/23 02:45:06;;;;;;;35.60;12.88;;;;;;;0.83;51.13;102857.01;1748388;80;25915;-57
2022/03/23 02:47:33;;;;;;;31.48;14.05;;;;;;;0.78;51.46;102857.07;1744323;81;25666;-57
2022/03/23 02:50:01;;;;;;;34.65;14.63;;;;;;;0.76;51.22;102854.89;1718611;82;26776;-58
2022/03/23 02:52:28;;;;;;;30.90;12.75;;;;;;;0.76;51.27;102853.56;1718658;82;25487;-58
2022/03/23 03:03:46;;;;;;;33.42;12.58;;;;;;;0.62;51.62;102850.23;1748874;81;25779;-57
2022/03/23 03:06:13;;;;;;;34.75;14.10;;;;;;;0.61;51.98;102851.99;1748616;81;25445;-57
2022/03/23 03:08:47;;;;;;;38.40;14.93;;;;;;;0.61;51.93;102851.99;1748544;81;27465;-57
2022/03/23 03:11:18;;;;;;;33.58;13.85;;;;;;;0.54;52.42;102854.30;1748198;82;25735;-58
2022/03/23 03:13:48;;;;;;;31.40;12.80;;;;;;;0.52;52.36;102852.11;1748143;82;25706;-58
2022/03/23 03:16:17;;;;;;;40.40;13.98;;;;;;;0.55;52.62;102852.08;1748972;81;25811;-58
2022/03/23 03:18:46;;;;;;;31.82;13.65;;;;;;;0.57;52.44;102852.95;1748704;81;25704;-58
2022/03/23 03:21:13;;;;;;;26.52;12.58;;;;;;;0.54;52.40;102853.44;1749110;80;27387;-58
2022/03/23 03:23:43;;;;;;;36.20;12.85;;;;;;;0.50;52.22;102851.71;1748774;81;25634;-58
2022/03/23 03:26:12;;;;;;;32.25;15.72;;;;;;;0.46;52.55;102850.41;1748823;80;25589;-58
2022/03/23 03:28:41;;;;;;;37.63;13.72;;;;;;;0.40;52.58;102850.96;1740024;81;25828;-58
2022/03/23 03:31:11;;;;;;;34.08;13.28;;;;;;;0.40;52.67;102853.61;1738090;82;25821;-57
2022/03/23 03:33:40;;;;;;;33.60;13.58;;;;;;;0.37;52.60;102846.55;1737956;82;28489;-57
2022/03/23 03:36:07;;;;;;;38.42;14.18;;;;;;;0.36;52.54;102853.20;1738181;82;25893;-57
2022/03/23 03:38:35;;;;;;;31.85;13.18;;;;;;;0.27;53.52;102855.07;1737958;81;25462;-58
2022/03/23 03:41:03;;;;;;;29.87;13.40;;;;;;;0.20;52.95;102861.34;1738071;82;25894;-58
2022/03/23 03:43:34;;;;;;;30.85;13.43;;;;;;;0.19;53.02;102863.55;1737987;82;25727;-58
2022/03/23 03:46:02;;;;;;;36.75;14.63;;;;;;;0.18;53.25;102852.53;1737959;82;28238;-59
2022/03/23 03:48:29;;;;;;;34.00;13.50;;;;;;;0.15;52.88;102864.46;1737642;82;25899;-59
2022/03/23 03:50:56;;;;;;;36.98;13.53;;;;;;;0.11;53.46;102858.80;1737832;82;25968;-57
2022/03/23 03:53:23;;;;;;;37.08;13.20;;;;;;;0.06;52.95;102859.27;1737648;82;25798;-57
2022/03/23 03:55:50;;;;;;;38.85;15.58;;;;;;;0.08;52.95;102860.14;1738199;82;25663;-57
2022/03/23 03:58:17;;;;;;;47.93;15.58;;;;;;;0.09;52.92;102857.47;1729587;82;28486;-57
2022/03/23 04:00:45;;;;;;;34.50;13.78;;;;;;;0.08;52.88;102862.78;1737837;82;25708;-57
2022/03/23 04:03:12;;;;;;;34.20;13.88;;;;;;;0.09;52.83;102856.60;1737872;82;25786;-57
2022/03/23 04:05:39;;;;;;;36.53;13.88;;;;;;;0.09;52.92;102860.57;1737976;82;25777;-57
2022/03/23 04:08:06;;;;;;;39.48;15.35;;;;;;;0.07;53.07;102855.30;1737765;82;25697;-57
2022/03/23 04:10:33;;;;;;;40.10;15.20;;;;;;;0.06;53.08;102856.20;1737698;82;27523;-57
2022/03/23 04:13:00;;;;;;;34.35;13.43;;;;;;;0.07;53.32;102854.41;1737824;82;25793;-57
2022/03/23 04:15:26;;;;;;;38.67;14.85;;;;;;;0.06;53.83;102855.30;1738119;82;25767;-57
2022/03/23 04:17:54;;;;;;;36.85;13.85;;;;;;;0.02;53.88;102858.43;1737923;82;25810;-58
2022/03/23 04:20:22;;;;;;;40.33;14.20;;;;;;;-0.01;53.58;102857.16;1738069;82;25787;-58
2022/03/23 04:22:50;;;;;;;34.10;14.00;;;;;;;-0.05;53.88;102862.04;1737821;82;28540;-57
2022/03/23 04:25:17;;;;;;;48.95;18.57;;;;;;;-0.06;53.56;102869.11;1722762;82;25459;-57
2022/03/23 04:27:48;;;;;;;34.92;14.95;;;;;;;-0.04;53.71;102865.12;1690842;83;26477;-57
2022/03/23 04:30:18;;;;;;;35.08;14.58;;;;;;;-0.02;54.06;102858.05;1692970;84;25797;-58
2022/03/23 04:32:47;;;;;;;39.70;14.68;;;;;;;-0.06;54.56;102857.21;1693191;83;25744;-58
2022/03/23 04:35:14;;;;;;;41.45;17.60;;;;;;;-0.06;54.13;102862.93;1692978;84;27474;-57
2022/03/23 04:37:42;;;;;;;36.40;16.02;;;;;;;-0.07;54.61;102866.03;1698006;83;26106;-57
2022/03/23 04:40:12;;;;;;;32.78;13.72;;;;;;;-0.08;54.33;102862.95;1697937;83;25764;-58
2022/03/23 04:42:40;;;;;;;42.83;15.72;;;;;;;-0.04;54.11;102858.05;1698093;84;26435;-58
2022/03/23 04:45:09;;;;;;;43.42;17.45;;;;;;;0.03;54.30;102861.97;1698097;83;25714;-57
2022/03/23 04:47:39;;;;;;;42.67;16.32;;;;;;;0.04;54.13;102859.76;1698013;83;27604;-58
2022/03/23 04:50:09;;;;;;;36.03;16.93;;;;;;;0.01;54.48;102861.97;1697961;83;25681;-58
2022/03/23 04:52:40;;;;;;;42.05;17.52;;;;;;;0.03;54.39;102863.30;1697744;83;25825;-57
2022/03/23 04:55:09;;;;;;;38.92;16.37;;;;;;;0.05;54.71;102869.42;1698318;84;25977;-57
2022/03/23 04:57:37;;;;;;;42.62;16.35;;;;;;;0.07;54.36;102867.64;1697595;83;25695;-58
2022/03/23 05:00:10;;;;;;;37.75;16.87;;;;;;;0.12;54.66;102857.91;1686219;85;27604;-58
2022/03/23 05:02:35;;;;;;;44.75;18.42;;;;;;;0.15;54.31;102865.36;1685967;84;25811;-58
2022/03/23 05:05:03;;;;;;;41.30;16.70;;;;;;;0.20;54.26;102856.47;1686115;83;25771;-57
2022/03/23 05:07:30;;;;;;;45.23;16.77;;;;;;;0.24;54.27;102864.36;1685935;83;26518;-58
2022/03/23 05:09:56;;;;;;;38.63;16.73;;;;;;;0.29;54.08;102862.55;1664284;83;25847;-59
2022/03/23 05:12:23;;;;;;;50.58;18.10;;;;;;;0.34;54.10;102865.58;1685572;85;27306;-59
2022/03/23 05:14:50;;;;;;;40.55;17.30;;;;;;;0.40;53.98;102862.41;1685701;85;25839;-58
2022/03/23 05:17:17;;;;;;;57.13;17.60;;;;;;;0.51;53.97;102862.73;1685972;85;25666;-58
2022/03/23 05:19:45;;;;;;;44.03;17.20;;;;;;;0.57;53.76;102866.62;1686255;85;25759;-57
2022/03/23 05:22:12;;;;;;;40.10;16.30;;;;;;;0.66;53.52;102863.84;1685680;85;25817;-58
2022/03/23 05:24:40;;;;;;;47.55;18.35;;;;;;;0.69;53.39;102865.15;1693275;82;28150;-57
2022/03/23 05:27:08;;;;;;;50.52;19.50;;;;;;;0.74;53.20;102863.77;1714228;83;25983;-57
2022/03/23 05:29:37;;;;;;;49.85;19.40;;;;;;;0.80;53.19;102866.31;1735477;82;25691;-58
2022/03/23 05:32:06;;;;;;;63.87;21.12;;;;;;;0.86;52.93;102867.55;1764865;81;25867;-58
2022/03/23 05:34:33;;;;;;;48.50;17.92;;;;;;;0.91;52.75;102865.72;1765143;80;25769;-57
2022/03/23 05:37:00;;;;;;;45.48;17.90;;;;;;;1.01;52.67;102865.59;1765000;81;27486;-58
2022/03/23 05:39:27;;;;;;;40.67;17.77;;;;;;;1.13;52.51;102862.73;1764889;81;25824;-58
2022/03/23 05:41:54;;;;;;;51.55;20.65;;;;;;;1.23;52.34;102869.66;1764922;81;25765;-58
2022/03/23 05:44:21;;;;;;;47.23;20.45;;;;;;;1.32;52.07;102863.34;1764898;81;25798;-58
2022/03/23 05:46:48;;;;;;;52.27;19.12;;;;;;;1.40;51.77;102865.84;1764944;80;25492;-58
2022/03/23 05:49:14;;;;;;;89.15;28.38;;;;;;;1.51;51.57;102865.70;1764992;81;27489;-57
2022/03/23 05:51:41;;;;;;;60.03;25.00;;;;;;;1.59;51.46;102862.89;1764744;81;25687;-58
2022/03/23 05:54:08;;;;;;;67.80;24.77;;;;;;;1.66;51.33;102859.26;1764947;80;25648;-58
2022/03/23 05:56:35;;;;;;;53.10;19.52;;;;;;;1.73;51.00;102862.22;1764987;81;26966;-59
2022/03/23 05:59:02;;;;;;;49.18;19.15;;;;;;;1.82;50.61;102862.05;1743733;81;25782;-57
2022/03/23 06:01:31;;;;;;;43.05;17.40;;;;;;;1.86;50.11;102857.09;1734628;82;28409;-59
2022/03/23 06:03:59;;;;;;;50.12;18.55;;;;;;;1.94;50.07;102859.63;1734656;82;25495;-57
2022/03/23 06:06:25;;;;;;;50.35;16.80;;;;;;;1.99;49.60;102860.39;1734528;82;25736;-57
2022/03/23 06:08:52;;;;;;;44.20;16.48;;;;;;;2.03;49.20;102859.88;1734705;82;25812;-58
2022/03/23 06:11:19;;;;;;;39.92;17.90;;;;;;;2.08;49.07;102862.45;1734515;82;26338;-56
2022/03/23 06:13:46;;;;;;;49.20;19.12;;;;;;;2.17;49.09;102855.63;1734445;82;27555;-58
2022/03/23 06:16:14;;;;;;;57.30;18.67;;;;;;;2.26;48.85;102853.27;1734389;82;25783;-57
2022/03/23 06:18:41;;;;;;;56.35;20.57;;;;;;;2.34;48.77;102856.17;1734473;82;25721;-58
2022/03/23 06:21:09;;;;;;;50.35;20.68;;;;;;;2.46;48.56;102856.83;1734711;81;26415;-58
2022/03/23 06:23:36;;;;;;;55.28;18.62;;;;;;;2.56;48.51;102853.51;1734702;81;25786;-58
2022/03/23 06:26:05;;;;;;;50.83;19.37;;;;;;;2.63;48.31;102855.16;1759940;81;27494;-58
2022/03/23 06:28:32;;;;;;;52.53;17.80;;;;;;;2.73;47.93;102851.83;1767642;80;25713;-58
2022/03/23 06:31:00;;;;;;;52.08;18.55;;;;;;;2.85;47.67;102846.69;1773101;80;25705;-58
2022/03/23 06:33:27;;;;;;;44.20;19.30;;;;;;;2.94;47.13;102842.05;1772907;80;26110;-58
2022/03/23 06:35:54;;;;;;;48.50;15.95;;;;;;;3.03;46.95;102846.27;1773122;80;25959;-58
2022/03/23 06:38:22;;;;;;;52.55;16.60;;;;;;;3.14;46.22;102847.33;1773136;80;28435;-58
2022/03/23 06:40:48;;;;;;;47.27;17.25;;;;;;;3.26;45.71;102848.84;1773086;80;25715;-58
2022/03/23 06:43:15;;;;;;;49.80;16.10;;;;;;;3.33;45.86;102853.09;1772989;80;25643;-58
2022/03/23 06:45:43;;;;;;;37.73;16.42;;;;;;;3.38;45.69;102851.19;1773005;80;25795;-59
2022/03/23 06:48:10;;;;;;;30.92;15.20;;;;;;;3.44;45.44;102840.41;1773361;80;25758;-59
2022/03/23 06:50:37;;;;;;;57.95;17.12;;;;;;;3.53;45.12;102839.75;1772977;80;27410;-59
2022/03/23 06:53:05;;;;;;;37.78;15.80;;;;;;;3.62;45.00;102844.84;1773041;80;25933;-58
2022/03/23 06:55:32;;;;;;;37.20;15.43;;;;;;;3.74;44.34;102843.64;1773085;80;25673;-58
2022/03/23 06:57:59;;;;;;;49.98;18.35;;;;;;;3.84;44.03;102840.26;1773080;79;25786;-59
2022/03/23 07:00:26;;;;;;;60.67;18.70;;;;;;;3.94;44.13;102839.09;1772897;80;25682;-58
2022/03/23 07:02:52;;;;;;;50.10;17.95;;;;;;;4.05;44.33;102822.38;1772933;80;28374;-59
2022/03/23 07:05:19;;;;;;;56.23;18.35;;;;;;;4.16;44.26;102823.86;1772882;80;25728;-58
2022/03/23 07:10:15;;;;;;;47.88;20.27;;;;;;;4.34;44.63;102823.33;1752091;80;26183;-58
2022/03/23 07:12:42;;;;;;;60.12;20.25;;;;;;;4.45;44.66;102819.00;1764020;80;25916;-59
2022/03/23 07:15:09;;;;;;;55.67;20.68;;;;;;;4.57;44.70;102824.42;1742153;82;29658;-58
2022/03/23 07:17:37;;;;;;;50.78;20.70;;;;;;;4.71;44.57;102824.00;1742022;82;26154;-58
2022/03/23 07:20:06;;;;;;;60.98;21.48;;;;;;;4.83;44.50;102819.63;1742093;82;25695;-57
2022/03/23 07:22:32;;;;;;;62.33;20.62;;;;;;;4.98;44.41;102824.05;1742255;82;25769;-58
2022/03/23 07:25:00;;;;;;;49.20;20.10;;;;;;;5.10;44.39;102817.44;1742090;82;25788;-58
2022/03/23 07:27:27;;;;;;;64.77;20.23;;;;;;;5.23;44.11;102825.47;1742178;82;27483;-57
2022/03/23 07:29:54;;;;;;;55.10;22.37;;;;;;;5.37;44.10;102821.00;1745470;82;25820;-57
2022/03/23 07:32:21;;;;;;;51.98;21.00;;;;;;;5.49;43.62;102819.23;1746365;81;25765;-57
2022/03/23 07:34:48;;;;;;;47.05;20.40;;;;;;;5.63;43.32;102813.89;1746545;82;25973;-58
2022/03/23 07:37:15;;;;;;;59.38;21.93;;;;;;;5.77;42.90;102808.92;1746556;82;25763;-58
2022/03/23 07:39:43;;;;;;;53.50;20.30;;;;;;;5.90;42.82;102804.02;1746524;82;27469;-58
2022/03/23 07:42:09;;;;;;;52.70;20.50;;;;;;;6.05;42.39;102805.29;1746488;80;25811;-58
2022/03/23 07:44:36;;;;;;;56.73;19.98;;;;;;;6.21;42.19;102805.59;1746500;82;25720;-58
2022/03/23 07:47:11;;;;;;;60.38;19.65;;;;;;;6.40;41.95;102799.55;1746798;80;26285;-58
2022/03/23 07:49:41;;;;;;;63.23;21.07;;;;;;;6.58;41.62;102804.19;1746846;80;25653;-58
2022/03/23 07:52:09;;;;;;;61.23;19.65;;;;;;;6.78;41.42;102800.31;1746791;80;28159;-58
2022/03/23 07:54:36;;;;;;;48.98;18.55;;;;;;;6.95;41.07;102800.50;1746890;82;25920;-57
2022/03/23 07:57:04;;;;;;;53.17;19.15;;;;;;;7.15;41.19;102797.47;1742354;82;25782;-58
2022/03/23 07:59:31;;;;;;;56.50;20.35;;;;;;;7.30;40.74;102791.46;1750646;81;25813;-58
2022/03/23 08:02:00;;;;;;;48.83;20.10;;;;;;;7.49;40.47;102794.69;1717350;83;25823;-57
2022/03/23 08:04:26;;;;;;;51.65;19.65;;;;;;;7.65;40.07;102784.19;1752290;81;28259;-58
2022/03/23 08:06:53;;;;;;;51.42;20.43;;;;;;;7.82;39.97;102786.10;1723991;81;25850;-58
2022/03/23 08:09:20;;;;;;;61.23;19.80;;;;;;;7.98;39.57;102780.93;1723857;83;25776;-58
2022/03/23 08:11:47;;;;;;;50.98;19.62;;;;;;;8.15;39.53;102772.98;1725458;81;25804;-59
2022/03/23 08:14:14;;;;;;;56.83;19.50;;;;;;;8.35;39.32;102763.59;1723237;81;25903;-59
2022/03/23 08:16:40;;;;;;;56.68;19.87;;;;;;;8.55;38.56;102763.55;1723468;81;27479;-58
2022/03/23 08:19:07;;;;;;;52.60;18.92;;;;;;;8.73;38.13;102759.58;1723360;81;25772;-58
2022/03/23 08:21:34;;;;;;;51.42;19.48;;;;;;;8.93;37.74;102759.92;1736888;81;25668;-57
2022/03/23 08:24:03;;;;;;;53.10;19.82;;;;;;;9.17;37.18;102751.11;1717235;82;25740;-57
2022/03/23 08:26:30;;;;;;;40.52;17.60;;;;;;;9.35;36.89;102744.40;1753800;81;25710;-57
2022/03/23 08:28:57;;;;;;;55.80;17.23;;;;;;;9.54;36.77;102738.46;1717351;82;27480;-57
2022/03/23 08:31:25;;;;;;;50.83;17.15;;;;;;;9.76;36.18;102740.02;1753228;81;25717;-57
2022/03/23 08:33:52;;;;;;;53.00;16.45;;;;;;;9.98;35.71;102737.03;1747204;81;25788;-57
2022/03/23 08:36:18;;;;;;;49.08;15.72;;;;;;;10.20;35.44;102732.28;1740605;81;25803;-57
2022/03/23 08:38:45;;;;;;;43.60;16.40;;;;;;;10.39;35.29;102732.14;1718847;83;25760;-58
2022/03/23 08:41:13;;;;;;;38.88;15.95;;;;;;;10.59;35.18;102724.27;1719854;83;28159;-59
2022/03/23 08:43:41;;;;;;;42.15;15.03;;;;;;;10.84;34.69;102722.38;1720307;83;25813;-59
2022/03/23 08:46:08;;;;;;;38.10;15.25;;;;;;;11.07;34.25;102720.16;1689970;84;25700;-57
2022/03/23 08:48:36;;;;;;;37.00;14.07;;;;;;;11.28;34.18;102712.11;1720217;83;25886;-58
2022/03/23 08:51:04;;;;;;;33.42;13.88;;;;;;;11.55;34.67;102712.73;1721917;83;25778;-58
2022/03/23 08:53:32;;;;;;;40.23;13.05;;;;;;;11.81;33.39;102710.23;1699589;83;27499;-58
2022/03/23 08:56:00;;;;;;;44.40;14.60;;;;;;;12.05;33.65;102703.80;1691119;84;25673;-58
2022/03/23 08:58:27;;;;;;;25.15;8.95;;;;;;;12.36;33.87;102704.52;1742113;79;25803;-58
2022/03/23 09:00:54;;;;;;;26.85;8.48;;;;;;;12.67;32.80;102697.07;1746890;82;25813;-58
2022/03/23 09:03:20;;;;;;;35.92;9.03;;;;;;;12.98;30.72;102696.36;1746764;80;25969;-58
2022/03/23 09:05:47;;;;;;;33.70;8.13;;;;;;;13.24;30.65;102688.76;1732480;81;27319;-58
2022/03/23 09:08:14;;;;;;;39.48;8.13;;;;;;;13.54;30.57;102691.67;1691192;83;25741;-58
2022/03/23 09:10:41;;;;;;;25.80;7.47;;;;;;;13.84;30.33;102685.06;1723243;82;25694;-60
2022/03/23 09:13:08;;;;;;;18.35;6.22;;;;;;;14.16;30.33;102688.13;1691320;84;26732;-59
2022/03/23 09:15:35;;;;;;;15.23;5.80;;;;;;;14.49;28.04;102684.35;1723123;81;25773;-58
2022/03/23 09:18:04;;;;;;;25.72;8.10;;;;;;;14.75;27.85;102674.30;1691488;83;27526;-58
2022/03/23 09:20:32;;;;;;;21.27;6.40;;;;;;;15.06;27.54;102679.20;1723169;83;25496;-58
2022/03/23 09:23:00;;;;;;;20.52;6.03;;;;;;;15.44;27.45;102676.19;1691204;84;25541;-58
2022/03/23 09:25:27;;;;;;;37.17;8.88;;;;;;;15.78;27.39;102671.27;1744125;81;25991;-58
2022/03/23 09:27:54;;;;;;;26.00;7.62;;;;;;;16.20;26.89;102669.28;1759202;81;25767;-57
2022/03/23 09:30:21;;;;;;;14.40;6.55;;;;;;;16.64;26.45;102661.98;1752332;80;27454;-58
2022/03/23 09:32:49;;;;;;;18.77;6.95;;;;;;;17.30;26.00;102660.03;1748847;81;25749;-58
2022/03/23 09:35:17;;;;;;;16.42;6.42;;;;;;;18.10;24.60;102658.88;1748510;82;25469;-58
2022/03/23 09:37:47;;;;;;;21.50;6.08;;;;;;;18.92;24.39;102652.18;1748662;80;26622;-58
2022/03/23 09:40:24;;;;;;;23.15;6.28;;;;;;;19.67;23.48;102650.53;1748970;82;25768;-59
2022/03/23 09:43:00;;;;;;;33.88;6.30;;;;;;;20.41;23.52;102641.85;1748462;81;27571;-59
2022/03/23 09:47:57;;;;;;;16.60;5.83;;;;;;;21.72;21.57;102642.98;1748773;81;25766;-58
2022/03/23 09:50:30;;;;;;;30.75;9.10;;;;;;;22.32;19.36;102635.08;1727590;82;25907;-58
2022/03/23 09:52:58;;;;;;;27.02;7.60;;;;;;;22.47;19.56;102631.19;1748779;82;25788;-58
2022/03/23 09:55:26;;;;;;;21.05;6.62;;;;;;;22.75;19.63;102627.27;1748557;80;28251;-59
2022/03/23 09:58:03;;;;;;;22.50;8.30;;;;;;;23.41;18.98;102627.16;1747798;79;25478;-60
2022/03/23 10:00:37;;;;;;;28.15;7.42;;;;;;;23.99;19.21;102615.94;1744399;81;25688;-59
2022/03/23 10:03:16;;;;;;;27.50;10.00;;;;;;;24.40;18.44;102610.14;1744405;80;25780;-59
2022/03/23 10:06:03;;;;;;;21.80;8.55;;;;;;;24.85;17.24;102607.03;1744286;82;26085;-59
2022/03/23 10:09:14;;;;;;;32.58;8.28;;;;;;;25.23;16.65;102605.27;1662888;85;27441;-59
2022/03/23 10:12:15;;;;;;;16.02;7.35;;;;;;;25.75;15.56;102596.55;1712319;83;26142;-59
2022/03/23 10:15:29;;;;;;;17.82;7.47;;;;;;;25.98;15.83;102595.02;1748403;82;25869;-59
2022/03/23 10:18:38;;;;;;;15.18;7.12;;;;;;;26.12;15.58;102587.78;1749111;82;25866;-58
2022/03/23 10:21:07;;;;;;;37.65;8.90;;;;;;;26.49;14.37;102587.69;1719061;82;27252;-59
2022/03/23 10:23:35;;;;;;;16.20;6.95;;;;;;;26.20;14.02;102574.36;1718885;82;27658;-60
2022/03/23 10:26:14;;;;;;;26.48;6.17;;;;;;;26.12;14.96;102568.98;1718444;83;25736;-60
2022/03/23 10:28:41;;;;;;;16.80;6.90;;;;;;;26.49;14.84;102568.37;1743813;82;25846;-60
2022/03/23 10:31:21;;;;;;;21.35;7.40;;;;;;;26.90;14.69;102556.59;1724710;82;25936;-58
2022/03/23 10:34:07;;;;;;;16.70;8.00;;;;;;;27.22;14.44;102564.42;1720469;82;25738;-59
2022/03/23 10:36:29;;;;;;;26.25;8.05;;;;;;;27.64;14.57;102550.09;1719229;83;26990;-58
2022/03/23 10:39:03;;;;;;;18.23;7.62;;;;;;;28.31;13.26;102541.08;1720595;82;25923;-60
2022/03/23 10:41:30;;;;;;;21.82;7.40;;;;;;;28.34;13.61;102539.25;1720185;82;26426;-59
2022/03/23 10:43:58;;;;;;;18.32;7.47;;;;;;;28.51;13.97;102534.14;1720400;83;25811;-59
2022/03/23 10:46:26;;;;;;;22.07;6.87;;;;;;;28.84;12.98;102527.73;1720323;83;25466;-58
2022/03/23 10:49:02;;;;;;;18.52;7.25;;;;;;;28.73;12.99;102523.71;1720475;83;27482;-58
2022/03/23 10:51:32;;;;;;;13.32;6.00;;;;;;;28.77;12.85;102510.28;1720283;82;25759;-59
2022/03/23 10:54:03;;;;;;;21.35;8.18;;;;;;;28.76;12.54;102506.67;1720022;83;25756;-60
2022/03/23 10:56:37;;;;;;;28.80;7.05;;;;;;;28.57;12.51;102506.47;1716878;82;25960;-59
2022/03/23 10:59:26;;;;;;;15.00;6.15;;;;;;;28.66;12.61;102497.92;1737359;82;25911;-59
2022/03/23 11:02:03;;;;;;;15.35;6.72;;;;;;;29.18;12.59;102486.94;1736955;82;27469;-58
2022/03/23 11:04:46;;;;;;;15.08;6.50;;;;;;;29.60;12.85;102487.37;1737435;82;25786;-59
2022/03/23 11:07:30;;;;;;;17.80;6.40;;;;;;;30.07;12.50;102483.45;1736673;82;25732;-59
2022/03/23 11:15:46;;;;;;;11.70;5.22;;;;;;;30.75;12.00;102463.13;1737609;82;27476;-59
2022/03/23 11:18:18;;;;;;;20.52;5.95;;;;;;;30.93;10.99;102455.02;1737751;81;25742;-59
2022/03/23 11:20:53;;;;;;;18.75;6.60;;;;;;;31.02;11.30;102453.63;1724716;82;25755;-59
2022/03/23 11:23:28;;;;;;;16.70;5.83;;;;;;;31.01;10.77;102440.81;1721562;82;25775;-59
2022/03/23 11:26:01;;;;;;;44.23;6.92;;;;;;;30.69;10.54;102439.61;1725902;82;25854;-59
2022/03/23 11:28:34;;;;;;;26.40;9.05;;;;;;;30.28;11.21;102432.22;1722823;82;27480;-58
2022/03/23 11:31:07;;;;;;;;;;;;;;;29.98;11.75;102432.92;1723346;82;25889;-59
2022/03/23 11:33:34;;;;;;;;;;;;;;;29.65;10.91;102425.14;1727101;82;25796;-59
2022/03/23 11:36:08;;;;;;;20.12;6.25;;;;;;;29.44;11.67;102429.69;1724114;82;25777;-60
2022/03/23 11:38:37;;;;;;;17.48;6.28;;;;;;;29.41;11.05;102420.42;1720722;82;25709;-60
2022/03/23 11:41:05;;;;;;;28.30;6.35;;;;;;;29.06;11.02;102418.87;1724406;82;27458;-59
2022/03/23 11:43:34;;;;;;;20.97;6.78;;;;;;;28.42;11.30;102411.72;1722460;82;25740;-60
2022/03/23 11:46:04;;;;;;;22.30;8.40;;;;;;;27.82;11.87;102404.86;1722127;82;25764;-60